createdAt,value
2019-02-15T00:00:10.100Z,9.83
2019-02-15T00:03:11.369Z,9.93
2019-02-15T00:06:12.179Z,10.43
2019-02-15T00:09:13.520Z,9.57
2019-02-15T00:12:14.696Z,10.20
2019-02-15T00:15:15.321Z,10.67
2019-02-15T00:18:17.882Z,9.88
2019-02-15T00:21:19.933Z,9.90
2019-02-15T00:24:08.789Z,10.73
2019-02-15T00:27:16.956Z,9.73
2019-02-15T00:30:18.180Z,9.57
2019-02-15T00:33:07.230Z,10.30
2019-02-15T00:36:15.450Z,10.10
2019-02-15T00:39:16.649Z,11.03
2019-02-15T00:42:17.615Z,11.07
2019-02-15T00:45:19.938Z,10.80
2019-02-15T00:48:25.087Z,11.48
2019-02-15T00:51:31.014Z,12.23
2019-02-15T00:54:51.252Z,11.33
2019-02-15T00:58:14.657Z,11.10
2019-02-15T01:01:39.259Z,10.57
2019-02-15T01:04:44.634Z,10.60
2019-02-15T01:07:50.417Z,10.97
2019-02-15T01:11:10.839Z,10.37
2019-02-15T01:14:11.876Z,9.50
2019-02-15T01:17:13.003Z,9.40
2019-02-15T01:20:14.042Z,8.67
2019-02-15T01:23:14.986Z,9.90
2019-02-15T01:26:20.063Z,9.27
2019-02-15T01:29:22.667Z,9.40
2019-02-15T01:32:43.044Z,9.18
2019-02-15T01:35:45.408Z,9.47
2019-02-15T01:38:50.248Z,9.40
2019-02-15T01:42:10.963Z,8.53
2019-02-15T01:45:13.882Z,9.33
2019-02-15T01:48:15.089Z,9.57
2019-02-15T01:51:16.271Z,9.73
2019-02-15T01:54:17.061Z,9.60
2019-02-15T01:57:17.812Z,9.60
2019-02-15T02:00:20.058Z,10.10
2019-02-15T02:03:20.765Z,10.32
2019-02-15T02:06:21.564Z,10.93
2019-02-15T02:09:22.922Z,10.40
2019-02-15T02:12:24.297Z,10.00
2019-02-15T02:15:25.030Z,11.37
2019-02-15T02:18:26.257Z,10.13
2019-02-15T02:21:27.293Z,10.28
2019-02-15T02:24:28.401Z,10.27
2019-02-15T02:27:17.358Z,9.70
2019-02-15T02:30:25.449Z,9.37
2019-02-15T02:33:26.362Z,9.53
2019-02-15T02:36:27.248Z,9.03
2019-02-15T02:39:28.094Z,8.80
2019-02-15T02:42:28.760Z,8.20
2019-02-15T02:45:29.512Z,9.13
2019-02-15T02:48:30.424Z,7.87
2019-02-15T02:51:31.267Z,7.80
2019-02-15T02:54:19.966Z,8.23
2019-02-15T02:57:28.103Z,8.10
2019-02-15T03:00:33.550Z,8.13
2019-02-15T03:03:32.509Z,8.30
2019-02-15T03:06:21.354Z,8.10
2019-02-15T03:09:29.504Z,7.97
2019-02-15T03:12:30.922Z,8.70
2019-02-15T03:15:31.884Z,8.63
2019-02-15T03:18:32.589Z,10.80
2019-02-15T03:21:33.606Z,13.30
2019-02-15T03:24:34.859Z,10.43
2019-02-15T03:27:23.660Z,10.83
2019-02-15T03:30:31.831Z,11.07
2019-02-15T03:33:40.068Z,10.08
2019-02-15T03:36:42.607Z,10.80
2019-02-15T03:39:45.652Z,10.03
2019-02-15T03:42:46.896Z,9.83
2019-02-15T03:45:48.690Z,9.37
2019-02-15T03:48:49.435Z,8.97
2019-02-15T03:51:51.036Z,8.90
2019-02-15T03:54:51.774Z,9.10
2019-02-15T03:57:53.198Z,9.80
2019-02-15T04:00:54.222Z,8.20
2019-02-15T04:03:55.560Z,8.90
2019-02-15T04:06:55.976Z,8.07
2019-02-15T04:09:56.729Z,9.00
2019-02-15T04:12:57.519Z,9.10
2019-02-15T04:15:58.359Z,24.43
2019-02-15T04:18:59.373Z,9.90
2019-02-15T04:22:00.266Z,13.90
2019-02-15T04:25:01.134Z,20.93
2019-02-15T04:28:02.331Z,11.57
2019-02-15T04:31:03.350Z,11.65
2019-02-15T04:34:04.138Z,12.00
2019-02-15T04:37:05.368Z,11.13
2019-02-15T04:40:06.279Z,10.70
2019-02-15T04:43:07.401Z,10.28
2019-02-15T04:46:08.847Z,10.23
2019-02-15T04:49:09.918Z,9.90
2019-02-15T04:52:11.643Z,10.00
2019-02-15T04:55:12.921Z,10.40
2019-02-15T04:58:14.454Z,9.97
2019-02-15T05:01:15.410Z,9.90
2019-02-15T05:04:16.454Z,9.90
2019-02-15T05:07:17.576Z,10.40
2019-02-15T05:10:18.415Z,9.23
2019-02-15T05:13:19.789Z,9.40
2019-02-15T05:16:20.374Z,9.18
2019-02-15T05:19:20.973Z,9.10
2019-02-15T05:22:21.482Z,9.40
2019-02-15T05:25:22.661Z,9.03
2019-02-15T05:28:23.460Z,9.40
2019-02-15T05:31:24.894Z,8.60
2019-02-15T05:34:25.978Z,9.40
2019-02-15T05:37:27.009Z,9.17
2019-02-15T05:40:27.646Z,9.03
2019-02-15T05:43:28.946Z,9.50
2019-02-15T05:46:30.287Z,9.33
2019-02-15T05:49:31.277Z,8.83
2019-02-15T05:52:32.018Z,9.00
2019-02-15T05:55:32.621Z,8.70
2019-02-15T05:58:33.346Z,8.48
2019-02-15T06:01:35.022Z,11.95
2019-02-15T06:04:36.110Z,8.93
2019-02-15T06:07:36.750Z,8.83
2019-02-15T06:10:37.411Z,11.07
2019-02-15T06:13:38.862Z,10.57
2019-02-15T06:16:39.529Z,8.00
2019-02-15T06:19:40.051Z,8.20
2019-02-15T06:22:41.532Z,7.47
2019-02-15T06:25:42.217Z,8.08
2019-02-15T06:28:42.918Z,7.77
2019-02-15T06:31:44.309Z,9.43
2019-02-15T06:34:45.485Z,9.90
2019-02-15T06:37:46.154Z,9.10
2019-02-15T06:40:47.505Z,11.53
2019-02-15T06:43:48.416Z,9.08
2019-02-15T06:46:49.687Z,20.75
2019-02-15T06:49:50.691Z,15.40
2019-02-15T06:52:52.093Z,10.45
2019-02-15T06:55:52.815Z,9.87
2019-02-15T06:58:58.485Z,10.28
2019-02-15T07:02:01.579Z,8.43
2019-02-15T07:05:04.036Z,10.03
2019-02-15T07:08:04.924Z,11.38
2019-02-15T07:11:06.341Z,14.43
2019-02-15T07:14:06.949Z,13.63
2019-02-15T07:17:07.786Z,15.38
2019-02-15T07:20:08.567Z,13.38
2019-02-15T07:23:10.017Z,13.43
2019-02-15T07:26:11.767Z,13.35
2019-02-15T07:29:12.944Z,12.55
2019-02-15T07:32:14.023Z,26.43
2019-02-15T07:35:15.456Z,25.30
2019-02-15T07:38:15.957Z,23.30
2019-02-15T07:41:16.859Z,13.60
2019-02-15T07:44:18.606Z,16.30
2019-02-15T07:47:20.166Z,15.47
2019-02-15T07:50:21.819Z,11.90
2019-02-15T07:53:23.213Z,15.17
2019-02-15T07:56:24.255Z,11.73
2019-02-15T07:59:25.137Z,10.37
2019-02-15T08:02:25.703Z,11.40
2019-02-15T08:05:26.378Z,12.20
2019-02-15T08:08:27.109Z,13.43
2019-02-15T08:11:27.467Z,12.77
2019-02-15T08:14:28.751Z,14.30
2019-02-15T08:17:29.417Z,15.80
2019-02-15T08:20:29.889Z,18.77
2019-02-15T08:23:30.592Z,29.87
2019-02-15T08:26:31.513Z,18.55
2019-02-15T08:29:32.257Z,13.62
2019-02-15T08:32:34.636Z,12.03
2019-02-15T08:35:35.081Z,12.23
2019-02-15T08:38:35.784Z,12.60
2019-02-15T08:41:36.490Z,12.40
2019-02-15T08:44:37.132Z,10.83
2019-02-15T08:47:39.729Z,11.60
2019-02-15T08:50:40.758Z,14.97
2019-02-15T08:53:41.021Z,11.17
2019-02-15T08:56:41.462Z,10.63
2019-02-15T08:59:42.279Z,10.73
2019-02-15T09:02:43.027Z,10.87
2019-02-15T09:05:43.574Z,11.77
2019-02-15T09:08:44.176Z,11.70
2019-02-15T09:11:44.620Z,12.90
2019-02-15T09:14:46.416Z,12.82
2019-02-15T09:17:48.218Z,14.00
2019-02-15T09:20:49.474Z,13.85
2019-02-15T09:23:50.881Z,14.38
2019-02-15T09:26:52.403Z,14.53
2019-02-15T09:29:53.985Z,14.47
2019-02-15T09:32:55.474Z,14.78
2019-02-15T09:35:57.311Z,14.65
2019-02-15T09:38:58.081Z,15.50
2019-02-15T09:41:59.254Z,15.63
2019-02-15T09:45:01.007Z,13.93
2019-02-15T09:48:02.584Z,14.43
2019-02-15T09:51:03.641Z,14.83
2019-02-15T09:54:04.645Z,14.35
2019-02-15T09:57:06.026Z,15.23
2019-02-15T10:03:40.311Z,13.43
2019-02-15T10:06:41.821Z,12.25
2019-02-15T10:09:43.499Z,11.70
2019-02-15T10:12:45.058Z,11.10
2019-02-15T10:15:46.802Z,10.53
2019-02-15T10:18:48.144Z,11.22
2019-02-15T10:21:49.713Z,9.35
2019-02-15T10:24:50.952Z,6.87
2019-02-15T10:27:52.407Z,6.50
2019-02-15T10:30:54.344Z,6.92
2019-02-15T10:33:56.002Z,6.35
2019-02-15T10:37:01.014Z,5.97
2019-02-15T10:40:02.741Z,6.80
2019-02-15T10:43:04.545Z,6.72
2019-02-15T10:46:05.851Z,7.55
2019-02-15T10:49:07.432Z,7.72
2019-02-15T10:52:08.970Z,7.80
2019-02-15T10:55:10.658Z,7.87
2019-02-15T10:58:11.965Z,7.45
2019-02-15T11:01:13.028Z,7.10
2019-02-15T11:04:14.509Z,6.75
2019-02-15T11:07:15.982Z,6.90
2019-02-15T11:10:16.595Z,6.73
2019-02-15T11:13:17.494Z,6.10
2019-02-15T11:16:18.828Z,6.23
2019-02-15T11:19:19.713Z,6.43
2019-02-15T11:22:20.666Z,6.30
2019-02-15T11:25:21.678Z,6.97
2019-02-15T11:28:22.269Z,6.33
2019-02-15T11:31:23.700Z,6.10
2019-02-15T11:34:24.826Z,6.63
2019-02-15T11:37:25.567Z,6.37
2019-02-15T11:40:26.764Z,8.00
2019-02-15T11:43:28.147Z,7.67
2019-02-15T11:46:29.441Z,8.30
2019-02-15T11:49:30.772Z,8.13
2019-02-15T11:52:31.765Z,8.27
2019-02-15T11:55:32.972Z,7.93
2019-02-15T11:58:33.647Z,7.87
2019-02-15T12:01:34.806Z,9.30
2019-02-15T12:04:35.962Z,8.20
2019-02-15T12:07:37.071Z,7.27
2019-02-15T12:10:37.699Z,6.63
2019-02-15T12:13:38.339Z,6.80
2019-02-15T12:16:39.859Z,6.80
2019-02-15T12:19:41.301Z,6.00
2019-02-15T12:22:42.156Z,6.30
2019-02-15T12:25:43.081Z,6.27
2019-02-15T12:28:44.589Z,5.90
2019-02-15T12:31:45.229Z,6.47
2019-02-15T12:34:46.618Z,5.53
2019-02-15T12:37:47.901Z,5.60
2019-02-15T12:40:49.315Z,5.47
2019-02-15T12:43:50.039Z,5.47
2019-02-15T12:46:51.157Z,3.73
2019-02-15T12:49:51.763Z,1.90
2019-02-15T12:52:53.229Z,2.63
2019-02-15T12:55:54.370Z,1.87
2019-02-15T12:58:55.882Z,1.30
2019-02-15T13:01:56.525Z,2.13
2019-02-15T13:04:57.587Z,1.80
2019-02-15T13:07:58.910Z,1.00
2019-02-15T13:10:59.854Z,1.00
2019-02-15T13:14:01.327Z,1.00
2019-02-15T13:17:02.289Z,0.90
2019-02-15T13:20:03.490Z,0.80
2019-02-15T13:23:04.770Z,0.80
2019-02-15T13:26:08.590Z,1.00
2019-02-15T13:29:08.173Z,0.97
2019-02-15T13:32:14.438Z,1.37
2019-02-15T13:35:15.054Z,1.23
2019-02-15T13:38:16.287Z,1.00
2019-02-15T13:41:17.210Z,1.07
2019-02-15T13:44:18.436Z,1.30
2019-02-15T13:47:19.777Z,0.90
2019-02-15T13:50:21.231Z,1.10
2019-02-15T13:53:21.878Z,1.00
2019-02-15T13:56:22.714Z,1.20
2019-02-15T13:59:24.038Z,1.10
2019-02-15T14:02:25.248Z,0.90
2019-02-15T14:05:25.843Z,1.10
2019-02-15T14:08:27.315Z,1.10
2019-02-15T14:11:16.193Z,1.00
2019-02-15T14:14:24.394Z,1.20
2019-02-15T14:17:25.848Z,1.10
2019-02-15T14:20:27.032Z,1.10
2019-02-15T14:23:27.941Z,1.20
2019-02-15T14:26:16.878Z,1.27
2019-02-15T14:29:24.997Z,1.27
2019-02-15T14:32:25.585Z,0.90
2019-02-15T14:35:26.279Z,0.80
2019-02-15T14:38:27.668Z,1.10
2019-02-15T14:41:28.518Z,0.90
2019-02-15T14:44:29.286Z,0.90
2019-02-15T14:47:29.933Z,1.43
2019-02-15T14:50:18.944Z,1.03
2019-02-15T14:56:34.415Z,1.00
2019-02-15T14:59:35.745Z,2.40
2019-02-15T15:02:37.061Z,4.23
2019-02-15T15:05:38.262Z,2.50
2019-02-15T15:08:38.913Z,2.13
2019-02-15T15:11:40.149Z,2.13
2019-02-15T15:14:41.038Z,1.60
2019-02-15T15:17:42.654Z,1.87
2019-02-15T15:20:44.316Z,1.60
2019-02-15T15:23:45.170Z,1.50
2019-02-15T15:26:46.338Z,1.30
2019-02-15T15:29:46.954Z,1.50
2019-02-15T15:32:48.203Z,2.07
2019-02-15T15:35:49.739Z,1.50
2019-02-15T15:38:50.373Z,2.20
2019-02-15T15:44:52.933Z,2.12
2019-02-15T15:51:26.733Z,1.60
2019-02-15T15:54:27.842Z,1.95
2019-02-15T16:01:01.206Z,3.25
2019-02-15T16:07:34.318Z,4.60
2019-02-15T16:10:35.713Z,3.70
2019-02-15T16:13:25.300Z,3.00
2019-02-15T16:16:33.765Z,3.02
2019-02-15T16:19:40.645Z,4.12
2019-02-15T16:22:38.657Z,3.50
2019-02-15T16:25:40.180Z,3.85
2019-02-15T16:28:41.986Z,3.62
2019-02-15T16:31:43.594Z,8.28
2019-02-15T16:34:45.337Z,6.62
2019-02-15T16:37:46.914Z,7.30
2019-02-15T16:40:48.510Z,6.50
2019-02-15T16:43:49.626Z,5.37
2019-02-15T16:46:50.000Z,6.40
2019-02-15T16:49:51.351Z,6.40
2019-02-15T16:52:51.946Z,5.33
2019-02-15T16:55:52.385Z,5.60
2019-02-15T16:58:52.779Z,6.50
2019-02-15T17:01:53.103Z,6.43
2019-02-15T17:04:53.449Z,7.10
2019-02-15T17:07:53.850Z,6.97
2019-02-15T17:10:54.269Z,6.70
2019-02-15T17:13:55.367Z,3.53
2019-02-15T17:16:55.762Z,5.20
2019-02-15T17:19:56.607Z,4.97
2019-02-15T17:22:57.007Z,8.50
2019-02-15T17:25:58.288Z,5.23
2019-02-15T17:28:59.526Z,20.83
2019-02-15T17:31:59.829Z,10.80
2019-02-15T17:35:00.360Z,12.67
2019-02-15T17:38:02.969Z,7.37
2019-02-15T17:41:03.983Z,7.43
2019-02-15T17:44:04.983Z,11.23
2019-02-15T17:47:05.328Z,31.20
2019-02-15T17:50:06.195Z,40.50
2019-02-15T17:53:07.033Z,17.07
2019-02-15T17:56:07.465Z,24.57
2019-02-15T17:59:08.083Z,15.03
2019-02-15T18:02:09.627Z,14.17
2019-02-15T18:05:11.796Z,14.43
2019-02-15T18:08:12.666Z,9.50
2019-02-15T18:11:13.348Z,6.80
2019-02-15T18:14:13.637Z,7.80
2019-02-15T18:17:14.405Z,6.07
2019-02-15T18:20:14.828Z,31.00
2019-02-15T18:23:15.407Z,20.77
2019-02-15T18:26:16.162Z,37.13
2019-02-15T18:29:17.073Z,31.37
2019-02-15T18:32:17.574Z,10.77
2019-02-15T18:35:17.908Z,24.97
2019-02-15T18:38:18.291Z,27.07
2019-02-15T18:41:18.797Z,17.10
2019-02-15T18:44:19.362Z,10.70
2019-02-15T18:47:19.988Z,7.53
2019-02-15T18:50:20.835Z,4.10
2019-02-15T18:53:21.224Z,4.00
2019-02-15T18:56:21.619Z,14.27
2019-02-15T18:59:10.145Z,8.37
2019-02-15T19:02:18.032Z,4.70
2019-02-15T19:05:19.135Z,10.80
2019-02-15T19:08:20.079Z,9.83
2019-02-15T19:11:20.712Z,5.13
2019-02-15T19:14:21.090Z,18.87
2019-02-15T19:17:22.003Z,4.87
2019-02-15T19:20:22.729Z,6.67
2019-02-15T19:23:23.230Z,5.50
2019-02-15T19:26:24.051Z,5.47
2019-02-15T19:29:24.612Z,11.77
2019-02-15T19:32:25.426Z,10.30
2019-02-15T19:35:25.969Z,7.47
2019-02-15T19:38:26.355Z,7.67
2019-02-15T19:41:27.619Z,4.23
2019-02-15T19:44:28.520Z,10.07
2019-02-15T19:47:29.227Z,5.53
2019-02-15T19:50:29.913Z,22.50
2019-02-15T19:53:30.315Z,13.20
2019-02-15T19:56:30.938Z,5.80
2019-02-15T19:59:31.565Z,7.37
2019-02-15T20:02:32.178Z,4.83
2019-02-15T20:05:33.110Z,4.93
2019-02-15T20:08:34.377Z,5.13
2019-02-15T20:11:34.764Z,4.70
2019-02-15T20:14:35.108Z,5.07
2019-02-15T20:17:35.564Z,4.53
2019-02-15T20:20:35.909Z,4.60
2019-02-15T20:23:36.214Z,5.47
2019-02-15T20:26:37.029Z,5.57
2019-02-15T20:29:38.181Z,5.00
2019-02-15T20:32:39.341Z,5.03
2019-02-15T20:35:39.678Z,7.20
2019-02-15T20:38:40.642Z,6.37
2019-02-15T20:41:41.441Z,4.77
2019-02-15T20:44:42.243Z,12.17
2019-02-15T20:47:43.491Z,10.63
2019-02-15T20:50:43.805Z,8.00
2019-02-15T20:53:44.903Z,7.57
2019-02-15T20:56:46.113Z,10.53
2019-02-15T20:59:47.023Z,7.30
2019-02-15T21:02:48.264Z,6.77
2019-02-15T21:05:48.583Z,7.30
2019-02-15T21:08:48.991Z,5.57
2019-02-15T21:11:49.857Z,4.80
2019-02-15T21:14:50.517Z,5.10
2019-02-15T21:17:51.679Z,6.47
2019-02-15T21:20:40.485Z,4.73
2019-02-15T21:23:41.391Z,7.47
2019-02-15T21:26:42.203Z,6.00
2019-02-15T21:29:42.848Z,8.27
2019-02-15T21:32:43.473Z,6.03
2019-02-15T21:35:43.961Z,7.40
2019-02-15T21:38:44.584Z,6.97
2019-02-15T21:41:45.712Z,6.03
2019-02-15T21:44:46.398Z,5.23
2019-02-15T21:47:47.431Z,5.43
2019-02-15T21:50:48.208Z,6.90
2019-02-15T21:53:48.592Z,6.17
2019-02-15T21:56:49.073Z,7.50
2019-02-15T21:59:49.361Z,7.97
2019-02-15T22:02:50.005Z,6.37
2019-02-15T22:05:50.401Z,6.50
2019-02-15T22:08:50.741Z,4.97
2019-02-15T22:11:51.606Z,5.53
2019-02-15T22:14:51.887Z,5.40
2019-02-15T22:17:52.745Z,5.23
2019-02-15T22:20:57.474Z,4.50
2019-02-15T22:23:58.177Z,4.10
2019-02-15T22:26:58.832Z,4.70
2019-02-15T22:29:59.318Z,4.70
2019-02-15T22:32:59.841Z,4.30
2019-02-15T22:36:00.172Z,4.80
2019-02-15T22:39:00.657Z,4.70
2019-02-15T22:42:01.102Z,5.50
2019-02-15T22:45:02.350Z,4.77
2019-02-15T22:48:02.735Z,5.13
2019-02-15T22:50:51.545Z,4.80
2019-02-15T22:53:59.496Z,4.00
2019-02-15T22:57:07.481Z,4.27
2019-02-15T23:00:13.014Z,5.00
2019-02-15T23:03:10.808Z,5.17
2019-02-15T23:06:11.241Z,4.60
2019-02-15T23:08:59.785Z,4.87
2019-02-15T23:12:00.835Z,4.00
2019-02-15T23:15:02.119Z,4.43
2019-02-15T23:18:03.405Z,4.63
2019-02-15T23:21:04.133Z,4.70
2019-02-15T23:24:05.250Z,4.87
2019-02-15T23:27:05.533Z,5.60
2019-02-15T23:30:05.950Z,6.50
2019-02-15T23:33:06.437Z,14.60
2019-02-15T23:36:06.922Z,9.37
2019-02-15T23:39:07.671Z,10.30
2019-02-15T23:41:56.387Z,5.83
2019-02-15T23:45:04.824Z,5.63
2019-02-15T23:48:05.332Z,5.53
2019-02-15T23:51:05.886Z,5.00
2019-02-15T23:54:06.470Z,4.90
2019-02-15T23:57:06.845Z,5.40
